Anthony, West Virginia
Current Conditions -  °F | °C
As of 8:35 PM on Tuesday 21 Oct 2014 (Local Time) from KLWB Reporting Station
Drizzle Drizzle  
Wind Chill:   Ceiling: 2600
Heat Index:   Visibility: 10mi
Dew Point:   Wind: 3mph
Humidity: 79%   Direction: 320°NW
Pressure: 30"   Gusts: NA
Location:  38.0307°N, 80.4756°W
Report Text: KLWB 220035Z AUTO 32003KT 10SM -DZ SCT022 BKN026 OVC070 08/05 A3000 RMK AO2 T00810046
Loading
Personal Weather Stations






























Interactive Weather Map
Tropical Storm Tracking
New forecast layout! Learn more

10-Day Weather Forecast

Advertisements
Track Severe Weather on mobile